createdAt,value
2019-05-13T14:13:45.470Z,77.07
2019-05-13T14:22:57.268Z,80.99
2019-05-13T14:28:56.910Z,81.00
2019-05-13T14:31:51.982Z,81.01
2019-05-13T14:40:41.604Z,80.63
2019-05-13T14:49:31.958Z,81.11
2019-05-13T14:52:14.698Z,81.83
2019-05-13T14:54:51.408Z,82.71
2019-05-13T14:57:24.100Z,80.79
2019-05-13T15:00:02.204Z,80.92
2019-05-13T15:02:35.919Z,79.40
2019-05-13T15:05:15.355Z,77.60
2019-05-13T15:11:05.888Z,76.59
2019-05-13T15:13:53.021Z,76.48
2019-05-13T15:16:38.642Z,75.82
2019-05-13T15:22:22.692Z,76.43
2019-05-13T15:28:16.796Z,76.46
2019-05-13T15:33:41.881Z,78.14
2019-05-13T15:36:15.553Z,77.23
2019-05-13T15:38:49.123Z,75.27
2019-05-13T15:41:21.706Z,79.02
2019-05-13T15:43:55.242Z,78.17
2019-05-13T15:46:28.466Z,78.47
2019-05-13T15:49:02.193Z,78.14
2019-05-13T15:51:35.096Z,76.80
2019-05-13T15:54:08.378Z,78.87
2019-05-13T15:56:40.889Z,79.24
2019-05-13T15:59:13.534Z,77.92
2019-05-13T16:01:46.855Z,90.58
2019-05-13T16:04:21.352Z,81.96
2019-05-13T16:07:09.192Z,81.22
2019-05-13T16:09:44.829Z,80.33
2019-05-13T16:12:16.932Z,80.77
2019-05-13T16:14:49.154Z,81.46
2019-05-13T16:17:38.765Z,81.54
2019-05-13T16:20:03.848Z,81.60
2019-05-13T16:22:37.766Z,81.26
2019-05-13T16:25:18.206Z,81.10
2019-05-13T16:27:52.031Z,80.29
2019-05-13T16:30:25.801Z,80.29
2019-05-13T16:33:02.256Z,80.47
2019-05-13T16:35:34.111Z,80.66
2019-05-13T16:38:16.997Z,78.67
2019-05-13T16:40:51.512Z,79.13
2019-05-13T16:43:26.500Z,81.00
2019-05-13T16:45:59.049Z,80.39
2019-05-13T16:48:32.474Z,81.74
2019-05-13T16:51:06.850Z,80.55
2019-05-13T16:53:42.802Z,79.98
2019-05-13T16:56:26.383Z,78.59
2019-05-13T16:58:52.018Z,81.41
2019-05-13T17:01:25.351Z,81.39
2019-05-13T17:03:58.555Z,79.91
2019-05-13T17:06:32.171Z,80.40
2019-05-13T17:09:06.013Z,80.18
2019-05-13T17:11:38.599Z,81.81
2019-05-13T17:14:13.149Z,81.60
2019-05-13T17:16:45.621Z,80.75
2019-05-13T17:19:18.757Z,80.57
2019-05-13T17:21:52.070Z,81.98
2019-05-13T17:24:24.852Z,83.41
2019-05-13T17:26:57.903Z,81.69
2019-05-13T17:29:31.692Z,80.27
2019-05-13T17:32:12.275Z,81.08
2019-05-13T17:34:45.997Z,81.35
2019-05-13T17:37:27.171Z,81.93
2019-05-13T17:40:01.456Z,81.43
2019-05-13T17:42:35.188Z,80.51
2019-05-13T17:45:11.303Z,80.35
2019-05-13T17:47:52.009Z,79.85
2019-05-13T17:50:25.313Z,80.70
2019-05-13T17:52:58.803Z,81.32
2019-05-13T17:55:31.544Z,82.74
2019-05-13T17:58:06.155Z,80.02
2019-05-13T18:00:41.371Z,80.48
2019-05-13T18:03:13.729Z,80.84
2019-05-13T18:05:46.561Z,81.92
2019-05-13T18:08:19.610Z,81.68
2019-05-13T18:10:52.584Z,81.84
2019-05-13T18:13:25.894Z,82.50
2019-05-13T18:16:02.440Z,81.66
2019-05-13T18:18:42.676Z,80.32
2019-05-13T18:21:08.161Z,80.59
2019-05-13T18:23:41.471Z,80.35
2019-05-13T18:26:16.234Z,80.78
2019-05-13T18:28:51.307Z,80.00
2019-05-13T18:31:24.853Z,79.22
2019-05-13T18:33:57.091Z,80.03
2019-05-13T18:36:31.815Z,80.68
2019-05-13T18:39:04.351Z,80.56
2019-05-13T18:41:37.151Z,81.48
2019-05-13T18:44:12.336Z,81.40
2019-05-13T18:46:44.271Z,81.57
2019-05-13T18:49:16.766Z,81.80
2019-05-13T18:51:49.741Z,80.32
2019-05-13T18:54:22.658Z,80.05
2019-05-13T18:56:58.563Z,80.69
2019-05-13T18:59:32.219Z,81.21
2019-05-13T19:02:06.717Z,80.76
2019-05-13T19:04:41.799Z,80.12
2019-05-13T19:07:15.107Z,80.30
2019-05-13T19:09:47.953Z,79.83
2019-05-13T19:12:21.967Z,79.70
2019-05-13T19:15:02.666Z,79.50
2019-05-13T19:17:36.300Z,78.97
2019-05-13T19:20:23.052Z,79.61
2019-05-13T19:23:04.403Z,80.03
2019-05-13T19:25:39.838Z,80.16
2019-05-13T19:28:17.945Z,79.90
2019-05-13T19:30:57.845Z,80.25
2019-05-13T19:33:37.954Z,79.66
2019-05-13T19:36:11.924Z,80.17
2019-05-13T19:38:51.646Z,79.73
2019-05-13T19:41:34.622Z,80.32
2019-05-13T19:44:09.337Z,79.80
2019-05-13T19:46:45.616Z,79.54
2019-05-13T19:49:31.925Z,80.35
2019-05-13T19:51:53.489Z,79.48
2019-05-13T19:54:26.363Z,81.19
2019-05-13T19:57:01.426Z,81.73
2019-05-13T19:59:33.780Z,82.33
2019-05-13T20:02:06.933Z,81.49
2019-05-13T20:04:41.386Z,82.97
2019-05-13T20:07:13.455Z,81.10
2019-05-13T20:09:46.499Z,80.10
2019-05-13T20:12:21.250Z,80.92
2019-05-13T20:15:01.410Z,80.09
2019-05-13T20:17:34.669Z,80.61
2019-05-13T20:20:12.410Z,82.91
2019-05-13T20:22:44.528Z,83.32
2019-05-13T20:25:18.011Z,83.64
2019-05-13T20:27:51.565Z,84.11
2019-05-13T20:30:24.930Z,84.06
2019-05-13T20:32:57.775Z,83.22
2019-05-13T20:35:31.396Z,83.31
2019-05-13T20:38:11.538Z,82.23
2019-05-13T20:40:44.696Z,83.04
2019-05-13T20:43:22.337Z,82.59
2019-05-13T20:45:55.341Z,83.12
2019-05-13T20:48:28.297Z,82.72
2019-05-13T20:51:02.712Z,83.62
2019-05-13T20:53:38.186Z,84.74
2019-05-13T20:56:11.355Z,87.32
2019-05-13T20:58:44.036Z,88.26
2019-05-13T21:01:16.458Z,88.51
2019-05-13T21:03:51.555Z,89.10
2019-05-13T21:06:23.899Z,89.39
2019-05-13T21:08:56.670Z,88.80
2019-05-13T21:11:31.095Z,88.40
2019-05-13T21:14:03.905Z,88.14
2019-05-13T21:16:36.744Z,89.31
2019-05-13T21:19:09.457Z,89.11
2019-05-13T21:21:42.441Z,88.74
2019-05-13T21:24:15.304Z,88.99
2019-05-13T21:26:48.554Z,88.51
2019-05-13T21:29:21.614Z,88.21
2019-05-13T21:31:54.400Z,88.32
2019-05-13T21:34:26.849Z,88.61
2019-05-13T21:37:02.373Z,88.88
2019-05-13T21:39:34.905Z,88.79
2019-05-13T21:42:07.736Z,88.47
2019-05-13T21:44:41.962Z,88.74
2019-05-13T21:47:14.957Z,88.82
2019-05-13T21:49:47.945Z,88.50
2019-05-13T21:52:23.593Z,87.97
2019-05-13T21:54:54.601Z,88.60
2019-05-13T21:57:27.701Z,87.86
2019-05-13T22:00:02.079Z,87.93
2019-05-13T22:02:35.345Z,87.66
2019-05-13T22:05:08.118Z,88.90
2019-05-13T22:07:42.119Z,88.60
2019-05-13T22:10:17.285Z,88.48
2019-05-13T22:12:51.920Z,88.67
2019-05-13T22:15:23.730Z,89.52
2019-05-13T22:17:56.566Z,88.45
2019-05-13T22:20:31.719Z,88.42
2019-05-13T22:23:04.453Z,88.12
2019-05-13T22:25:37.238Z,87.19
2019-05-13T22:28:11.772Z,88.47
2019-05-13T22:30:44.801Z,88.12
